Buoy 55954

sailwx.info

Track history (hours):
 
Tides and Currents Weather Stations Pressure Air Temp Water Temp Dewpoint Dewpoint Depression Visibility Wind Speed Wind Dir Waves Ship Positions

Drifting buoy 55954

Last reported at 2018-May-24 06:00 UTC. Time now 2018-May-24 08:16 UTC.
Position S 34°36' E 168°06'.

Water temperature 19.3 ° C

Date/timePositionNaut miles runAvg speedWind from/ knotsBaromVisibWave heightAir tempDewpointWater temp
2018-May-24 06:00S 34°36' E 168°06'0 0.0 19.3
2018-May-24 05:00S 34°36' E 168°06'0 0.0 19.3
2018-May-24 04:00S 34°36' E 168°06'3 3.2 19.3
2018-May-24 03:00S 34°37' E 168°02'0 0.0 19.3
2018-May-23 23:00S 34°37' E 168°02'1 0.6 19.2
2018-May-23 22:00S 34°38' E 168°02'2 0.8 19.2
2018-May-23 20:00S 34°38' E 168°01'1 1.2 19.2
2018-May-23 19:00S 34°38' E 167°59'1 0.8 19.2
2018-May-23 18:00S 34°38' E 167°59'0 0.0 19.3
2018-May-23 17:00S 34°38' E 167°59'0 0.0 19.3
2018-May-23 16:00S 34°38' E 167°59'3 0.6 19.3
2018-May-23 11:00S 34°41' E 167°57'1 0.6 19.2
2018-May-23 10:00S 34°41' E 167°57'1 0.8 19.2
2018-May-23 09:00S 34°42' E 167°56'2 0.6 19.2
2018-May-23 06:00S 34°44' E 167°56'2 1.8 19.2
2018-May-23 05:00S 34°46' E 167°56'1 1.5 19.2
2018-May-23 04:00S 34°46' E 167°55'5 0.8 19.3
2018-May-22 22:00S 34°49' E 167°50'1 0.6 19.3
2018-May-22 21:00S 34°50' E 167°50'2 1.6 19.3
2018-May-22 20:00S 34°51' E 167°49'1 0.8 19.3
2018-May-22 19:00S 34°52' E 167°49'2 0.9 19.3
2018-May-22 17:00S 34°53' E 167°49'0 0.0 19.4
2018-May-22 16:00S 34°53' E 167°49'6 5.9 19.4
2018-May-22 15:00S 34°56' E 167°42'0 0.0 19.4
2018-May-22 12:00S 34°56' E 167°42'1 1.2 19.3
2018-May-22 11:00S 34°56' E 167°41'1 0.8 19.3
2018-May-22 10:00S 34°57' E 167°40'1 0.8 19.4
2018-May-22 09:00S 34°56' E 167°40'4 1.4 19.4
2018-May-22 06:00S 34°58' E 167°35'1 1.0 19.4
2018-May-22 05:00S 34°58' E 167°34'0 0.0 19.4
2018-May-22 04:00S 34°58' E 167°34'6 1.1 19.5
2018-May-21 23:00S 34°56' E 167°27'0 0.5 19.4
2018-May-21 22:00S 34°56' E 167°28'1 1.5 19.4
2018-May-21 21:00S 34°56' E 167°26'0 0.5 19.4
2018-May-21 20:00S 34°56' E 167°25'1 0.6 19.5
2018-May-21 19:00S 34°56' E 167°25'0 0.0 19.6
2018-May-21 18:00S 34°56' E 167°25'0 0.0 19.6
2018-May-21 16:00S 34°56' E 167°25'0 0.0 19.6
2018-May-21 15:00S 34°56' E 167°25'3 3.4 19.6
2018-May-21 14:00S 34°56' E 167°21'1 0.2 19.6
2018-May-21 11:00S 34°55' E 167°21'1 0.6 19.5
2018-May-21 10:00S 34°55' E 167°21'4 1.1 19.5
2018-May-21 06:00S 34°52' E 167°17'1 0.8 19.4
2018-May-21 05:00S 34°52' E 167°17'0 0.0 19.5
2018-May-21 04:00S 34°52' E 167°17'2 0.3 19.5
2018-May-20 23:00S 34°53' E 167°16'0 0.0 19.6
2018-May-20 22:00S 34°53' E 167°16'1 1.2 19.6
2018-May-20 21:00S 34°54' E 167°14'1 0.6 19.6
2018-May-20 20:00S 34°55' E 167°14'1 0.7 19.6
2018-May-20 18:00S 34°55' E 167°13'0 0.0 19.6
2018-May-20 17:00S 34°55' E 167°13'0 0.0 19.6
2018-May-20 16:00S 34°55' E 167°13'3 2.5 19.7
2018-May-20 15:00S 34°55' E 167°10'3 0.9 19.7
2018-May-20 12:00S 34°53' E 167°11'0 0.0 19.7
2018-May-20 11:00S 34°53' E 167°11'0 0.0 19.7
2018-May-20 10:00S 34°53' E 167°11'2 0.4 19.7
2018-May-20 06:00S 34°52' E 167°09'4 4.2 19.8
2018-May-20 05:00S 34°50' E 167°05'0 0.0 19.8
2018-May-20 04:00S 34°50' E 167°05'0 0.0 19.8
2018-May-19 23:00S 34°50' E 167°05'1 0.6 19.8
2018-May-19 22:00S 34°49' E 167°05'1 1.3 19.8
2018-May-19 21:00S 34°48' E 167°04'0 0.0 19.7
2018-May-19 20:00S 34°48' E 167°04'0 0.0 19.7
2018-May-19 19:00S 34°48' E 167°04'1 1.2 19.7
2018-May-19 18:00S 34°47' E 167°03'1 0.3 19.7
2018-May-19 16:00S 34°47' E 167°03'3 2.7 19.6
2018-May-19 15:00S 34°45' E 167°01'2 1.6 19.6
2018-May-19 14:00S 34°46' E 167°02'2 0.5 19.6
2018-May-19 11:00S 34°45' E 167°01'1 0.6 19.6
2018-May-19 10:00S 34°44' E 167°01'0 0.0 19.6
2018-May-19 09:00S 34°44' E 167°01'1 0.8 19.6
2018-May-19 08:00S 34°44' E 167°00'0 0.0 19.7
2018-May-19 07:00S 34°44' E 167°00'2 0.8 19.7
2018-May-19 05:00S 34°44' E 166°58'2 1.2 19.7
2018-May-19 03:00S 34°43' E 166°56'1 0.3 19.7
2018-May-18 23:00S 34°42' E 166°55'0 0.0 19.8
2018-May-18 22:00S 34°42' E 166°55'1 0.6 19.7
2018-May-18 21:00S 34°41' E 166°55'1 0.6 19.7
2018-May-18 19:00S 34°41' E 166°54'0 0.5 19.7
2018-May-18 18:00S 34°41' E 166°55'2 2.1 19.7
2018-May-18 17:00S 34°40' E 166°52'1 1.0 19.7
2018-May-18 16:00S 34°40' E 166°51'0 0.0 19.7
2018-May-18 15:00S 34°40' E 166°51'0 0.0 19.7
2018-May-18 14:00S 34°40' E 166°51'3 1.4 19.7
2018-May-18 12:00S 34°38' E 166°49'1 0.8 19.7
2018-May-18 11:00S 34°38' E 166°49'1 1.2 19.7
2018-May-18 10:00S 34°37' E 166°49'0 0.0 19.7
2018-May-18 09:00S 34°37' E 166°49'2 1.6 19.6
2018-May-18 08:00S 34°37' E 166°47'1 0.5 19.6
2018-May-18 06:00S 34°37' E 166°46'0 0.0 19.5
2018-May-18 05:00S 34°37' E 166°46'2 1.6 19.6
2018-May-18 04:00S 34°36' E 166°44'5 0.8 19.6
2018-May-17 22:00S 34°36' E 166°38'0 0.0 19.7
2018-May-17 21:00S 34°36' E 166°38'2 2.0 19.8
2018-May-17 20:00S 34°36' E 166°35'1 0.4 19.7
2018-May-17 17:00S 34°35' E 166°34'1 1.5 19.8
2018-May-17 16:00S 34°35' E 166°32'0 0.0 19.8
2018-May-17 15:00S 34°35' E 166°32'3 1.0 19.9
2018-May-17 12:00S 34°36' E 166°29'0 0.5 19.9
2018-May-17 11:00S 34°36' E 166°28'0 0.5 19.9
2018-May-17 10:00S 34°36' E 166°28'1 0.5 19.9
2018-May-17 08:00S 34°36' E 166°26'1 0.4 19.8
2018-May-17 06:00S 34°37' E 166°26'2 1.0 19.7
2018-May-17 04:00S 34°38' E 166°24'7 1.4 19.7
2018-May-16 23:00S 34°40' E 166°16'1 1.0 19.6
2018-May-16 22:00S 34°40' E 166°15'2 1.6 19.1
2018-May-16 21:00S 34°41' E 166°14'1 0.6 19.0
2018-May-16 20:00S 34°42' E 166°14'0 0.5 19.0
2018-May-16 19:00S 34°42' E 166°13'3 1.5 19.0
2018-May-16 17:00S 34°44' E 166°10'8 1.3 19.0
2018-May-16 11:00S 34°50' E 166°04'1 1.3 18.7
2018-May-16 10:00S 34°51' E 166°03'2 1.9 18.8
2018-May-16 09:00S 34°52' E 166°01'0 0.0 18.8
2018-May-16 08:00S 34°52' E 166°01'1 1.2 18.7
2018-May-16 07:00S 34°53' E 166°00'1 1.2 18.7
2018-May-16 06:00S 34°54' E 166°00'1 1.2 18.6
2018-May-16 05:00S 34°55' E 166°00'3 2.5 18.7
2018-May-16 04:00S 34°56' E 165°57'0 0.0 18.7
2018-May-16 03:00S 34°56' E 165°57'5 1.4 18.7
2018-May-15 23:00S 35°00' E 165°53'0 0.0 18.9
2018-May-15 22:00S 35°00' E 165°53'2 1.6 18.9
2018-May-15 21:00S 35°01' E 165°51'2 1.6 18.9
2018-May-15 20:00S 35°02' E 165°50'1 0.6 18.9
2018-May-15 18:00S 35°03' E 165°49'1 1.0 18.9
2018-May-15 17:00S 35°03' E 165°48'2 1.9 18.8
2018-May-15 16:00S 35°04' E 165°46'4 1.0 18.8
2018-May-15 12:00S 35°07' E 165°43'1 1.2 18.9
2018-May-15 11:00S 35°06' E 165°43'3 2.8 18.9
2018-May-15 10:00S 35°08' E 165°41'0 0.5 18.9
2018-May-15 09:00S 35°08' E 165°41'1 0.7 18.9
2018-May-15 07:00S 35°08' E 165°39'2 1.9 18.8
2018-May-15 06:00S 35°10' E 165°38'2 1.6 18.7
2018-May-15 05:00S 35°11' E 165°37'0 0.0 18.8
2018-May-15 04:00S 35°11' E 165°37'5 0.9 18.9
2018-May-14 23:00S 35°13' E 165°32'1 1.0 19.3
2018-May-14 22:00S 35°13' E 165°31'0 0.0 19.3
2018-May-14 21:00S 35°13' E 165°31'1 1.3 19.4
2018-May-14 20:00S 35°14' E 165°30'1 0.4 19.4
2018-May-14 18:00S 35°15' E 165°29'0 0.0 19.5
2018-May-14 17:00S 35°15' E 165°29'2 1.6 19.5
2018-May-14 16:00S 35°16' E 165°28'0 0.0 19.5
2018-May-14 15:00S 35°16' E 165°28'3 0.8 19.6
2018-May-14 12:00S 35°16' E 165°25'2 1.5 19.6
2018-May-14 11:00S 35°17' E 165°23'1 1.1 19.6
2018-May-14 10:00S 35°17' E 165°22'1 1.5 19.6
2018-May-14 09:00S 35°17' E 165°20'1 1.1 19.6
2018-May-14 08:00S 35°16' E 165°19'0 0.2 19.6
2018-May-14 06:00S 35°16' E 165°20'   19.7
Track history (hours):
 
Tides and Currents Weather Stations Pressure Air Temp Water Temp Dewpoint Dewpoint Depression Visibility Wind Speed Wind Dir Waves Ship Positions

Drifting buoy 55954

Last reported at 2018-May-24 06:00 UTC. Time now 2018-May-24 08:16 UTC.
Position S 34°36' E 168°06'.

Water temperature 19.3 ° C

Date/timePositionNaut miles runAvg speedWind from/ knotsBaromVisibWave heightAir tempDewpointWater temp
2018-May-24 06:00S 34°36' E 168°06'0 0.0 19.3
2018-May-24 05:00S 34°36' E 168°06'0 0.0 19.3
2018-May-24 04:00S 34°36' E 168°06'3 3.2 19.3
2018-May-24 03:00S 34°37' E 168°02'0 0.0 19.3
2018-May-23 23:00S 34°37' E 168°02'1 0.6 19.2
2018-May-23 22:00S 34°38' E 168°02'2 0.8 19.2
2018-May-23 20:00S 34°38' E 168°01'1 1.2 19.2
2018-May-23 19:00S 34°38' E 167°59'1 0.8 19.2
2018-May-23 18:00S 34°38' E 167°59'0 0.0 19.3
2018-May-23 17:00S 34°38' E 167°59'0 0.0 19.3
2018-May-23 16:00S 34°38' E 167°59'3 0.6 19.3
2018-May-23 11:00S 34°41' E 167°57'1 0.6 19.2
2018-May-23 10:00S 34°41' E 167°57'1 0.8 19.2
2018-May-23 09:00S 34°42' E 167°56'2 0.6 19.2
2018-May-23 06:00S 34°44' E 167°56'2 1.8 19.2
2018-May-23 05:00S 34°46' E 167°56'1 1.5 19.2
2018-May-23 04:00S 34°46' E 167°55'5 0.8 19.3
2018-May-22 22:00S 34°49' E 167°50'1 0.6 19.3
2018-May-22 21:00S 34°50' E 167°50'2 1.6 19.3
2018-May-22 20:00S 34°51' E 167°49'1 0.8 19.3
2018-May-22 19:00S 34°52' E 167°49'2 0.9 19.3
2018-May-22 17:00S 34°53' E 167°49'0 0.0 19.4
2018-May-22 16:00S 34°53' E 167°49'6 5.9 19.4
2018-May-22 15:00S 34°56' E 167°42'0 0.0 19.4
2018-May-22 12:00S 34°56' E 167°42'1 1.2 19.3
2018-May-22 11:00S 34°56' E 167°41'1 0.8 19.3
2018-May-22 10:00S 34°57' E 167°40'1 0.8 19.4
2018-May-22 09:00S 34°56' E 167°40'4 1.4 19.4
2018-May-22 06:00S 34°58' E 167°35'1 1.0 19.4
2018-May-22 05:00S 34°58' E 167°34'0 0.0 19.4
2018-May-22 04:00S 34°58' E 167°34'6 1.1 19.5
2018-May-21 23:00S 34°56' E 167°27'0 0.5 19.4
2018-May-21 22:00S 34°56' E 167°28'1 1.5 19.4
2018-May-21 21:00S 34°56' E 167°26'0 0.5 19.4
2018-May-21 20:00S 34°56' E 167°25'1 0.6 19.5
2018-May-21 19:00S 34°56' E 167°25'0 0.0 19.6
2018-May-21 18:00S 34°56' E 167°25'0 0.0 19.6
2018-May-21 16:00S 34°56' E 167°25'0 0.0 19.6
2018-May-21 15:00S 34°56' E 167°25'3 3.4 19.6
2018-May-21 14:00S 34°56' E 167°21'1 0.2 19.6
2018-May-21 11:00S 34°55' E 167°21'1 0.6 19.5
2018-May-21 10:00S 34°55' E 167°21'4 1.1 19.5
2018-May-21 06:00S 34°52' E 167°17'1 0.8 19.4
2018-May-21 05:00S 34°52' E 167°17'0 0.0 19.5
2018-May-21 04:00S 34°52' E 167°17'2 0.3 19.5
2018-May-20 23:00S 34°53' E 167°16'0 0.0 19.6
2018-May-20 22:00S 34°53' E 167°16'1 1.2 19.6
2018-May-20 21:00S 34°54' E 167°14'1 0.6 19.6
2018-May-20 20:00S 34°55' E 167°14'1 0.7 19.6
2018-May-20 18:00S 34°55' E 167°13'0 0.0 19.6
2018-May-20 17:00S 34°55' E 167°13'0 0.0 19.6
2018-May-20 16:00S 34°55' E 167°13'3 2.5 19.7
2018-May-20 15:00S 34°55' E 167°10'3 0.9 19.7
2018-May-20 12:00S 34°53' E 167°11'0 0.0 19.7
2018-May-20 11:00S 34°53' E 167°11'0 0.0 19.7
2018-May-20 10:00S 34°53' E 167°11'2 0.4 19.7
2018-May-20 06:00S 34°52' E 167°09'4 4.2 19.8
2018-May-20 05:00S 34°50' E 167°05'0 0.0 19.8
2018-May-20 04:00S 34°50' E 167°05'0 0.0 19.8
2018-May-19 23:00S 34°50' E 167°05'1 0.6 19.8
2018-May-19 22:00S 34°49' E 167°05'1 1.3 19.8
2018-May-19 21:00S 34°48' E 167°04'0 0.0 19.7
2018-May-19 20:00S 34°48' E 167°04'0 0.0 19.7
2018-May-19 19:00S 34°48' E 167°04'1 1.2 19.7
2018-May-19 18:00S 34°47' E 167°03'1 0.3 19.7
2018-May-19 16:00S 34°47' E 167°03'3 2.7 19.6
2018-May-19 15:00S 34°45' E 167°01'2 1.6 19.6
2018-May-19 14:00S 34°46' E 167°02'2 0.5 19.6
2018-May-19 11:00S 34°45' E 167°01'1 0.6 19.6
2018-May-19 10:00S 34°44' E 167°01'0 0.0 19.6
2018-May-19 09:00S 34°44' E 167°01'1 0.8 19.6
2018-May-19 08:00S 34°44' E 167°00'0 0.0 19.7
2018-May-19 07:00S 34°44' E 167°00'2 0.8 19.7
2018-May-19 05:00S 34°44' E 166°58'2 1.2 19.7
2018-May-19 03:00S 34°43' E 166°56'1 0.3 19.7
2018-May-18 23:00S 34°42' E 166°55'0 0.0 19.8
2018-May-18 22:00S 34°42' E 166°55'1 0.6 19.7
2018-May-18 21:00S 34°41' E 166°55'1 0.6 19.7
2018-May-18 19:00S 34°41' E 166°54'0 0.5 19.7
2018-May-18 18:00S 34°41' E 166°55'2 2.1 19.7
2018-May-18 17:00S 34°40' E 166°52'1 1.0 19.7
2018-May-18 16:00S 34°40' E 166°51'0 0.0 19.7
2018-May-18 15:00S 34°40' E 166°51'0 0.0 19.7
2018-May-18 14:00S 34°40' E 166°51'3 1.4 19.7
2018-May-18 12:00S 34°38' E 166°49'1 0.8 19.7
2018-May-18 11:00S 34°38' E 166°49'1 1.2 19.7
2018-May-18 10:00S 34°37' E 166°49'0 0.0 19.7
2018-May-18 09:00S 34°37' E 166°49'2 1.6 19.6
2018-May-18 08:00S 34°37' E 166°47'1 0.5 19.6
2018-May-18 06:00S 34°37' E 166°46'0 0.0 19.5
2018-May-18 05:00S 34°37' E 166°46'2 1.6 19.6
2018-May-18 04:00S 34°36' E 166°44'5 0.8 19.6
2018-May-17 22:00S 34°36' E 166°38'0 0.0 19.7
2018-May-17 21:00S 34°36' E 166°38'2 2.0 19.8
2018-May-17 20:00S 34°36' E 166°35'1 0.4 19.7
2018-May-17 17:00S 34°35' E 166°34'1 1.5 19.8
2018-May-17 16:00S 34°35' E 166°32'0 0.0 19.8
2018-May-17 15:00S 34°35' E 166°32'3 1.0 19.9
2018-May-17 12:00S 34°36' E 166°29'0 0.5 19.9
2018-May-17 11:00S 34°36' E 166°28'0 0.5 19.9
2018-May-17 10:00S 34°36' E 166°28'1 0.5 19.9
2018-May-17 08:00S 34°36' E 166°26'1 0.4 19.8
2018-May-17 06:00S 34°37' E 166°26'2 1.0 19.7
2018-May-17 04:00S 34°38' E 166°24'7 1.4 19.7
2018-May-16 23:00S 34°40' E 166°16'1 1.0 19.6
2018-May-16 22:00S 34°40' E 166°15'2 1.6 19.1
2018-May-16 21:00S 34°41' E 166°14'1 0.6 19.0
2018-May-16 20:00S 34°42' E 166°14'0 0.5 19.0
2018-May-16 19:00S 34°42' E 166°13'3 1.5 19.0
2018-May-16 17:00S 34°44' E 166°10'8 1.3 19.0
2018-May-16 11:00S 34°50' E 166°04'1 1.3 18.7
2018-May-16 10:00S 34°51' E 166°03'2 1.9 18.8
2018-May-16 09:00S 34°52' E 166°01'0 0.0 18.8
2018-May-16 08:00S 34°52' E 166°01'1 1.2 18.7
2018-May-16 07:00S 34°53' E 166°00'1 1.2 18.7
2018-May-16 06:00S 34°54' E 166°00'1 1.2 18.6
2018-May-16 05:00S 34°55' E 166°00'3 2.5 18.7
2018-May-16 04:00S 34°56' E 165°57'0 0.0 18.7
2018-May-16 03:00S 34°56' E 165°57'5 1.4 18.7
2018-May-15 23:00S 35°00' E 165°53'0 0.0 18.9
2018-May-15 22:00S 35°00' E 165°53'2 1.6 18.9
2018-May-15 21:00S 35°01' E 165°51'2 1.6 18.9
2018-May-15 20:00S 35°02' E 165°50'1 0.6 18.9
2018-May-15 18:00S 35°03' E 165°49'1 1.0 18.9
2018-May-15 17:00S 35°03' E 165°48'2 1.9 18.8
2018-May-15 16:00S 35°04' E 165°46'4 1.0 18.8
2018-May-15 12:00S 35°07' E 165°43'1 1.2 18.9
2018-May-15 11:00S 35°06' E 165°43'3 2.8 18.9
2018-May-15 10:00S 35°08' E 165°41'0 0.5 18.9
2018-May-15 09:00S 35°08' E 165°41'1 0.7 18.9
2018-May-15 07:00S 35°08' E 165°39'2 1.9 18.8
2018-May-15 06:00S 35°10' E 165°38'2 1.6 18.7
2018-May-15 05:00S 35°11' E 165°37'0 0.0 18.8
2018-May-15 04:00S 35°11' E 165°37'5 0.9 18.9
2018-May-14 23:00S 35°13' E 165°32'1 1.0 19.3
2018-May-14 22:00S 35°13' E 165°31'0 0.0 19.3
2018-May-14 21:00S 35°13' E 165°31'1 1.3 19.4
2018-May-14 20:00S 35°14' E 165°30'1 0.4 19.4
2018-May-14 18:00S 35°15' E 165°29'0 0.0 19.5
2018-May-14 17:00S 35°15' E 165°29'2 1.6 19.5
2018-May-14 16:00S 35°16' E 165°28'0 0.0 19.5
2018-May-14 15:00S 35°16' E 165°28'3 0.8 19.6
2018-May-14 12:00S 35°16' E 165°25'2 1.5 19.6
2018-May-14 11:00S 35°17' E 165°23'1 1.1 19.6
2018-May-14 10:00S 35°17' E 165°22'1 1.5 19.6
2018-May-14 09:00S 35°17' E 165°20'1 1.1 19.6
2018-May-14 08:00S 35°16' E 165°19'0 0.2 19.6
2018-May-14 06:00S 35°16' E 165°20'   19.7

Dump ship's entire track history